Monday, October 23, 2017, 12:08 PM CDT
Back to Local

KSLN, Salina Municipal Airport

Location: Salina, KS, United States Lat: 38.783
Local Time: 12:08 PM CDT (17:08 GMT) Lon: -97.65
Time Zone: US/Central Elev: 1272 ft

Show me the last for .
Show Decoded

2017-10-23 11:53 METAR KSLN 231653Z 35025G35KT 10SM CLR 21/02 A3012 RMK AO2 PK WND 36036/1633
                 RAE11 SLP195 P0000 T02060022 =
2017-10-23 11:11 METAR KSLN 231611Z 34024G29KT 10SM CLR 20/06 A3010 RMK AO2 PK WND 34030/1558
                 RAE11 P0000 T02000056 =
2017-10-23 10:53 METAR KSLN 231553Z 33020G26KT 10SM -RA CLR 19/06 A3010 RMK AO2 PK WND 33027/1551
                 RAB41 SLP191 P0000 T01890061 =
2017-10-23 09:53 METAR KSLN 231453Z 31012KT 10SM CLR 16/06 A3010 RMK AO2 SLP190 T01560061 53038 =
2017-10-23 08:53 METAR KSLN 231353Z 31010KT 10SM CLR 12/04 A3005 RMK AO2 SLP176 T01220044 =
2017-10-23 07:53 METAR KSLN 231253Z 31010KT 10SM CLR 11/03 A3000 RMK AO2 SLP158 T01060033 =
2017-10-23 06:53 METAR KSLN 231153Z 29007KT 10SM CLR 09/03 A2998 RMK AO2 SLP149 T00890028 10122
                 20083 53008 =
2017-10-23 05:53 METAR KSLN 231053Z AUTO 22009KT 10SM CLR 11/03 A2993 RMK AO2 SLP129 T01060028 =
2017-10-23 04:53 METAR KSLN 230953Z AUTO 19004KT 10SM CLR 09/04 A2993 RMK AO2 SLP131 T00940044 =
2017-10-23 03:53 METAR KSLN 230853Z AUTO 17007KT 10SM CLR 08/05 A2995 RMK AO2 SLP139 T00830050
                 58017 =
2017-10-23 02:53 METAR KSLN 230753Z AUTO 19007KT 10SM CLR 11/05 A2998 RMK AO2 SLP148 T01060050 =
2017-10-23 01:53 METAR KSLN 230653Z AUTO 20010KT 10SM CLR 12/04 A3000 RMK AO2 SLP152 T01170044 =
2017-10-23 00:53 METAR KSLN 230553Z AUTO 19010KT 10SM CLR 11/04 A3001 RMK AO2 SLP156 T01110039
                 10172 20083 402280039 58014 =
2017-10-22 23:53 METAR KSLN 230453Z AUTO 18008KT 10SM CLR 11/03 A3003 RMK AO2 SLP166 T01060033 =
2017-10-22 22:53 METAR KSLN 230353Z 18006KT 10SM CLR 08/03 A3004 RMK AO2 SLP173 T00830033 =
2017-10-22 21:53 METAR KSLN 230253Z 18006KT 10SM CLR 10/03 A3005 RMK AO2 SLP176 T01000033 58005 =
2017-10-22 20:53 METAR KSLN 230153Z 18005KT 10SM CLR 11/03 A3006 RMK AO2 SLP180 T01060028 =
2017-10-22 19:53 METAR KSLN 230053Z 14004KT 10SM CLR 13/03 A3007 RMK AO2 SLP185 T01330028 =
2017-10-22 18:53 METAR KSLN 222353Z 17004KT 10SM CLR 17/02 A3007 RMK AO2 SLP181 T01720022 10228
                 20167 56009 =
2017-10-22 17:53 METAR KSLN 222253Z 26005KT 10SM CLR 22/M01 A3007 RMK AO2 SLP179 T02171011 =
2017-10-22 16:53 METAR KSLN 222153Z 24006KT 10SM CLR 22/M03 A3008 RMK AO2 SLP181 T02221028 =
2017-10-22 15:53 METAR KSLN 222053Z 26008KT 10SM CLR 22/M04 A3009 RMK AO2 SLP187 T02221039 56024
                 =
2017-10-22 14:53 METAR KSLN 221953Z VRB05KT 10SM CLR 22/M04 A3011 RMK AO2 SLP191 T02221039 =
2017-10-22 14:02 METAR KSLN 221902Z 28009KT 10SM CLR 22/M03 A3013 RMK AO2 T02171033
2017-10-22 13:53 METAR KSLN 221853Z 25009KT 5SM HZ CLR 22/M03 A3014 RMK AO2 SLP200 T02171028 =
2017-10-22 12:53 METAR KSLN 221753Z 25005KT 10SM CLR 20/01 A3017 RMK AO2 SLP211 T02000006 10200
                 20039 58007 =

Support USWX by starting your Amazon purchase here.